sensor_id;sensor_type;location;lat;lon;timestamp;temperature;humidity
61117;DHT22;47002;50.856;6.580;2022-08-16T00:00:24;16.00;86.20
61117;DHT22;47002;50.856;6.580;2022-08-16T00:02:52;16.00;86.10
61117;DHT22;47002;50.856;6.580;2022-08-16T00:05:19;15.90;86.10
61117;DHT22;47002;50.856;6.580;2022-08-16T00:07:46;15.90;86.10
61117;DHT22;47002;50.856;6.580;2022-08-16T00:10:13;15.90;86.10
61117;DHT22;47002;50.856;6.580;2022-08-16T00:12:39;15.80;86.40
61117;DHT22;47002;50.856;6.580;2022-08-16T00:15:09;15.80;86.40
61117;DHT22;47002;50.856;6.580;2022-08-16T00:17:35;15.80;86.50
61117;DHT22;47002;50.856;6.580;2022-08-16T00:20:03;15.80;86.60
61117;DHT22;47002;50.856;6.580;2022-08-16T00:22:29;15.80;86.60
61117;DHT22;47002;50.856;6.580;2022-08-16T00:24:54;15.80;86.50
61117;DHT22;47002;50.856;6.580;2022-08-16T00:27:21;15.90;86.30
61117;DHT22;47002;50.856;6.580;2022-08-16T00:29:47;15.90;86.30
61117;DHT22;47002;50.856;6.580;2022-08-16T00:32:13;15.90;86.20
61117;DHT22;47002;50.856;6.580;2022-08-16T00:34:39;15.90;86.20
61117;DHT22;47002;50.856;6.580;2022-08-16T00:37:06;15.80;86.10
61117;DHT22;47002;50.856;6.580;2022-08-16T00:39:31;15.80;86.10
61117;DHT22;47002;50.856;6.580;2022-08-16T00:41:57;15.70;86.10
61117;DHT22;47002;50.856;6.580;2022-08-16T00:44:23;15.70;86.30
61117;DHT22;47002;50.856;6.580;2022-08-16T00:46:51;15.70;86.30
61117;DHT22;47002;50.856;6.580;2022-08-16T00:49:19;15.60;86.50
61117;DHT22;47002;50.856;6.580;2022-08-16T00:51:46;15.60;86.60
61117;DHT22;47002;50.856;6.580;2022-08-16T00:54:14;15.60;86.80
61117;DHT22;47002;50.856;6.580;2022-08-16T00:56:43;15.60;87.00
61117;DHT22;47002;50.856;6.580;2022-08-16T00:59:10;15.50;87.30
61117;DHT22;47002;50.856;6.580;2022-08-16T01:01:38;15.50;87.40
61117;DHT22;47002;50.856;6.580;2022-08-16T01:04:05;15.60;87.40
61117;DHT22;47002;50.856;6.580;2022-08-16T01:06:31;15.60;87.50
61117;DHT22;47002;50.856;6.580;2022-08-16T01:08:58;15.60;87.40
61117;DHT22;47002;50.856;6.580;2022-08-16T01:11:25;15.60;87.40
61117;DHT22;47002;50.856;6.580;2022-08-16T01:13:55;15.50;87.40
61117;DHT22;47002;50.856;6.580;2022-08-16T01:16:24;15.50;87.30
61117;DHT22;47002;50.856;6.580;2022-08-16T01:18:54;15.50;87.40
61117;DHT22;47002;50.856;6.580;2022-08-16T01:21:31;15.50;87.50
61117;DHT22;47002;50.856;6.580;2022-08-16T01:24:13;15.50;87.60
61117;DHT22;47002;50.856;6.580;2022-08-16T01:26:41;15.40;87.60
61117;DHT22;47002;50.856;6.580;2022-08-16T01:29:11;15.50;87.50
61117;DHT22;47002;50.856;6.580;2022-08-16T01:31:38;15.40;87.50
61117;DHT22;47002;50.856;6.580;2022-08-16T01:34:04;15.40;87.50
61117;DHT22;47002;50.856;6.580;2022-08-16T01:36:30;15.40;87.60
61117;DHT22;47002;50.856;6.580;2022-08-16T01:38:57;15.40;87.60
61117;DHT22;47002;50.856;6.580;2022-08-16T01:41:27;15.40;87.70
61117;DHT22;47002;50.856;6.580;2022-08-16T01:43:53;15.40;87.60
61117;DHT22;47002;50.856;6.580;2022-08-16T01:46:21;15.40;87.50
61117;DHT22;47002;50.856;6.580;2022-08-16T01:48:49;15.40;87.60
61117;DHT22;47002;50.856;6.580;2022-08-16T01:51:19;15.40;87.40
61117;DHT22;47002;50.856;6.580;2022-08-16T01:53:46;15.40;87.30
61117;DHT22;47002;50.856;6.580;2022-08-16T01:56:12;15.40;87.00
61117;DHT22;47002;50.856;6.580;2022-08-16T01:58:39;15.30;86.70
61117;DHT22;47002;50.856;6.580;2022-08-16T02:01:05;15.30;86.60
61117;DHT22;47002;50.856;6.580;2022-08-16T02:03:30;15.20;86.70
61117;DHT22;47002;50.856;6.580;2022-08-16T02:05:56;15.20;86.70
61117;DHT22;47002;50.856;6.580;2022-08-16T02:08:22;15.20;86.80
61117;DHT22;47002;50.856;6.580;2022-08-16T02:10:48;15.10;86.90
61117;DHT22;47002;50.856;6.580;2022-08-16T02:13:13;15.10;87.10
61117;DHT22;47002;50.856;6.580;2022-08-16T02:15:40;15.10;87.20
61117;DHT22;47002;50.856;6.580;2022-08-16T02:18:06;15.00;87.30
61117;DHT22;47002;50.856;6.580;2022-08-16T02:20:35;15.00;87.40
61117;DHT22;47002;50.856;6.580;2022-08-16T02:23:03;14.90;87.40
61117;DHT22;47002;50.856;6.580;2022-08-16T02:25:29;14.90;87.40
61117;DHT22;47002;50.856;6.580;2022-08-16T02:27:55;14.80;87.60
61117;DHT22;47002;50.856;6.580;2022-08-16T02:30:23;14.80;87.80
61117;DHT22;47002;50.856;6.580;2022-08-16T02:32:50;14.70;88.00
61117;DHT22;47002;50.856;6.580;2022-08-16T02:35:16;14.70;88.10
61117;DHT22;47002;50.856;6.580;2022-08-16T02:37:42;14.60;88.30
61117;DHT22;47002;50.856;6.580;2022-08-16T02:40:09;14.60;88.40
61117;DHT22;47002;50.856;6.580;2022-08-16T02:42:36;14.50;88.60
61117;DHT22;47002;50.856;6.580;2022-08-16T02:45:02;14.50;88.80
61117;DHT22;47002;50.856;6.580;2022-08-16T02:47:28;14.40;89.00
61117;DHT22;47002;50.856;6.580;2022-08-16T02:49:55;14.30;89.20
61117;DHT22;47002;50.856;6.580;2022-08-16T02:52:21;14.40;89.30
61117;DHT22;47002;50.856;6.580;2022-08-16T02:54:47;14.30;89.30
61117;DHT22;47002;50.856;6.580;2022-08-16T02:57:13;14.30;89.20
61117;DHT22;47002;50.856;6.580;2022-08-16T02:59:39;14.20;89.10
61117;DHT22;47002;50.856;6.580;2022-08-16T03:02:04;14.20;88.90
61117;DHT22;47002;50.856;6.580;2022-08-16T03:04:30;14.10;88.40
61117;DHT22;47002;50.856;6.580;2022-08-16T03:06:57;14.10;88.50
61117;DHT22;47002;50.856;6.580;2022-08-16T03:09:24;13.90;88.60
61117;DHT22;47002;50.856;6.580;2022-08-16T03:11:50;13.90;88.70
61117;DHT22;47002;50.856;6.580;2022-08-16T03:14:15;13.90;89.70
61117;DHT22;47002;50.856;6.580;2022-08-16T03:16:41;13.90;89.90
61117;DHT22;47002;50.856;6.580;2022-08-16T03:19:07;13.80;89.70
61117;DHT22;47002;50.856;6.580;2022-08-16T03:21:33;13.80;89.80
61117;DHT22;47002;50.856;6.580;2022-08-16T03:24:01;13.90;89.90
61117;DHT22;47002;50.856;6.580;2022-08-16T03:26:26;13.80;89.90
61117;DHT22;47002;50.856;6.580;2022-08-16T03:28:52;13.80;89.90
61117;DHT22;47002;50.856;6.580;2022-08-16T03:31:18;13.70;89.90
61117;DHT22;47002;50.856;6.580;2022-08-16T03:33:43;13.70;89.90
61117;DHT22;47002;50.856;6.580;2022-08-16T03:36:09;13.70;90.00
61117;DHT22;47002;50.856;6.580;2022-08-16T03:38:35;13.70;90.10
61117;DHT22;47002;50.856;6.580;2022-08-16T03:41:04;13.60;90.10
61117;DHT22;47002;50.856;6.580;2022-08-16T03:43:31;13.60;90.20
61117;DHT22;47002;50.856;6.580;2022-08-16T03:45:57;13.50;90.30
61117;DHT22;47002;50.856;6.580;2022-08-16T03:48:26;13.50;90.50
61117;DHT22;47002;50.856;6.580;2022-08-16T03:50:52;13.40;90.60
61117;DHT22;47002;50.856;6.580;2022-08-16T03:53:18;13.40;90.80
61117;DHT22;47002;50.856;6.580;2022-08-16T03:55:44;13.40;90.90
61117;DHT22;47002;50.856;6.580;2022-08-16T03:58:11;13.30;91.00
61117;DHT22;47002;50.856;6.580;2022-08-16T04:00:37;13.40;91.10
61117;DHT22;47002;50.856;6.580;2022-08-16T04:03:04;13.30;91.30
61117;DHT22;47002;50.856;6.580;2022-08-16T04:05:31;13.40;91.40
61117;DHT22;47002;50.856;6.580;2022-08-16T04:07:57;13.40;91.60
61117;DHT22;47002;50.856;6.580;2022-08-16T04:10:23;13.40;91.80
61117;DHT22;47002;50.856;6.580;2022-08-16T04:12:49;13.40;91.80
61117;DHT22;47002;50.856;6.580;2022-08-16T04:15:16;13.40;91.80
61117;DHT22;47002;50.856;6.580;2022-08-16T04:17:42;13.40;91.70
61117;DHT22;47002;50.856;6.580;2022-08-16T04:20:12;13.40;91.70
61117;DHT22;47002;50.856;6.580;2022-08-16T04:22:39;13.50;91.60
61117;DHT22;47002;50.856;6.580;2022-08-16T04:25:06;13.50;91.50
61117;DHT22;47002;50.856;6.580;2022-08-16T04:27:32;13.50;91.30
61117;DHT22;47002;50.856;6.580;2022-08-16T04:29:58;13.50;91.10
61117;DHT22;47002;50.856;6.580;2022-08-16T04:32:25;13.50;91.00
61117;DHT22;47002;50.856;6.580;2022-08-16T04:34:51;13.40;90.70
61117;DHT22;47002;50.856;6.580;2022-08-16T04:37:17;13.40;90.50
61117;DHT22;47002;50.856;6.580;2022-08-16T04:39:43;13.40;90.60
61117;DHT22;47002;50.856;6.580;2022-08-16T04:42:08;13.40;90.50
61117;DHT22;47002;50.856;6.580;2022-08-16T04:44:34;13.40;90.50
61117;DHT22;47002;50.856;6.580;2022-08-16T04:47:00;13.40;90.60
61117;DHT22;47002;50.856;6.580;2022-08-16T04:49:27;13.40;90.70
61117;DHT22;47002;50.856;6.580;2022-08-16T04:51:53;13.50;90.80
61117;DHT22;47002;50.856;6.580;2022-08-16T04:54:19;13.50;90.70
61117;DHT22;47002;50.856;6.580;2022-08-16T04:56:45;13.60;90.70
61117;DHT22;47002;50.856;6.580;2022-08-16T04:59:10;13.70;90.80
61117;DHT22;47002;50.856;6.580;2022-08-16T05:01:36;13.70;90.70
61117;DHT22;47002;50.856;6.580;2022-08-16T05:04:03;13.80;90.50
61117;DHT22;47002;50.856;6.580;2022-08-16T05:06:31;13.90;90.30
61117;DHT22;47002;50.856;6.580;2022-08-16T05:08:56;14.00;90.00
61117;DHT22;47002;50.856;6.580;2022-08-16T05:11:22;14.10;89.90
61117;DHT22;47002;50.856;6.580;2022-08-16T05:13:48;14.10;89.80
61117;DHT22;47002;50.856;6.580;2022-08-16T05:16:17;14.20;89.60
61117;DHT22;47002;50.856;6.580;2022-08-16T05:18:43;14.30;89.10
61117;DHT22;47002;50.856;6.580;2022-08-16T05:21:09;14.40;88.90
61117;DHT22;47002;50.856;6.580;2022-08-16T05:23:36;14.50;88.70
61117;DHT22;47002;50.856;6.580;2022-08-16T05:26:02;14.50;88.50
61117;DHT22;47002;50.856;6.580;2022-08-16T05:28:28;14.60;88.40
61117;DHT22;47002;50.856;6.580;2022-08-16T05:30:54;14.60;88.30
61117;DHT22;47002;50.856;6.580;2022-08-16T05:33:21;14.70;88.10
61117;DHT22;47002;50.856;6.580;2022-08-16T05:35:48;14.70;88.00
61117;DHT22;47002;50.856;6.580;2022-08-16T05:38:14;14.80;87.90
61117;DHT22;47002;50.856;6.580;2022-08-16T05:40:45;14.90;87.80
61117;DHT22;47002;50.856;6.580;2022-08-16T05:43:11;15.00;87.90
61117;DHT22;47002;50.856;6.580;2022-08-16T05:45:36;15.10;87.70
61117;DHT22;47002;50.856;6.580;2022-08-16T05:48:03;15.30;87.20
61117;DHT22;47002;50.856;6.580;2022-08-16T05:50:28;15.40;86.80
61117;DHT22;47002;50.856;6.580;2022-08-16T05:52:54;15.50;86.60
61117;DHT22;47002;50.856;6.580;2022-08-16T05:55:20;15.60;86.50
61117;DHT22;47002;50.856;6.580;2022-08-16T05:57:47;15.70;86.30
61117;DHT22;47002;50.856;6.580;2022-08-16T06:00:14;15.80;86.00
61117;DHT22;47002;50.856;6.580;2022-08-16T06:02:40;15.90;85.70
61117;DHT22;47002;50.856;6.580;2022-08-16T06:05:07;16.00;85.30
61117;DHT22;47002;50.856;6.580;2022-08-16T06:07:33;16.10;84.90
61117;DHT22;47002;50.856;6.580;2022-08-16T06:09:59;16.30;84.80
61117;DHT22;47002;50.856;6.580;2022-08-16T06:12:25;16.30;84.70
61117;DHT22;47002;50.856;6.580;2022-08-16T06:14:52;16.50;84.70
61117;DHT22;47002;50.856;6.580;2022-08-16T06:17:18;16.60;84.60
61117;DHT22;47002;50.856;6.580;2022-08-16T06:19:44;16.70;84.50
61117;DHT22;47002;50.856;6.580;2022-08-16T06:22:10;16.90;84.40
61117;DHT22;47002;50.856;6.580;2022-08-16T06:24:36;17.00;84.40
61117;DHT22;47002;50.856;6.580;2022-08-16T06:27:02;17.10;84.30
61117;DHT22;47002;50.856;6.580;2022-08-16T06:29:28;17.20;84.30
61117;DHT22;47002;50.856;6.580;2022-08-16T06:31:55;17.30;84.20
61117;DHT22;47002;50.856;6.580;2022-08-16T06:34:20;17.50;84.00
61117;DHT22;47002;50.856;6.580;2022-08-16T06:36:46;17.60;83.60
61117;DHT22;47002;50.856;6.580;2022-08-16T06:39:12;17.80;83.30
61117;DHT22;47002;50.856;6.580;2022-08-16T06:41:38;17.90;83.10
61117;DHT22;47002;50.856;6.580;2022-08-16T06:44:03;18.10;82.90
61117;DHT22;47002;50.856;6.580;2022-08-16T06:46:31;18.20;82.60
61117;DHT22;47002;50.856;6.580;2022-08-16T06:48:59;18.30;82.20
61117;DHT22;47002;50.856;6.580;2022-08-16T06:51:25;18.50;82.00
61117;DHT22;47002;50.856;6.580;2022-08-16T06:53:51;18.60;81.90
61117;DHT22;47002;50.856;6.580;2022-08-16T06:56:17;18.70;81.80
61117;DHT22;47002;50.856;6.580;2022-08-16T06:58:42;18.90;81.50
61117;DHT22;47002;50.856;6.580;2022-08-16T07:01:08;19.00;80.80
61117;DHT22;47002;50.856;6.580;2022-08-16T07:03:34;19.10;80.30
61117;DHT22;47002;50.856;6.580;2022-08-16T07:06:02;19.30;80.10
61117;DHT22;47002;50.856;6.580;2022-08-16T07:08:28;19.40;79.70
61117;DHT22;47002;50.856;6.580;2022-08-16T07:10:54;19.60;79.50
61117;DHT22;47002;50.856;6.580;2022-08-16T07:13:20;19.70;78.90
61117;DHT22;47002;50.856;6.580;2022-08-16T07:15:46;19.80;78.40
61117;DHT22;47002;50.856;6.580;2022-08-16T07:18:12;20.00;78.20
61117;DHT22;47002;50.856;6.580;2022-08-16T07:20:38;20.10;77.40
61117;DHT22;47002;50.856;6.580;2022-08-16T07:23:05;20.30;76.60
61117;DHT22;47002;50.856;6.580;2022-08-16T07:25:32;20.40;75.90
61117;DHT22;47002;50.856;6.580;2022-08-16T07:27:58;20.60;75.90
61117;DHT22;47002;50.856;6.580;2022-08-16T07:30:24;20.70;74.80
61117;DHT22;47002;50.856;6.580;2022-08-16T07:32:50;20.90;73.90
61117;DHT22;47002;50.856;6.580;2022-08-16T07:35:16;21.00;72.40
61117;DHT22;47002;50.856;6.580;2022-08-16T07:37:42;21.10;71.90
61117;DHT22;47002;50.856;6.580;2022-08-16T07:40:10;21.30;71.40
61117;DHT22;47002;50.856;6.580;2022-08-16T07:42:36;21.40;70.00
61117;DHT22;47002;50.856;6.580;2022-08-16T07:45:03;21.50;68.00
61117;DHT22;47002;50.856;6.580;2022-08-16T07:47:29;21.60;67.90
61117;DHT22;47002;50.856;6.580;2022-08-16T07:49:54;21.60;67.60
61117;DHT22;47002;50.856;6.580;2022-08-16T07:52:20;21.70;67.80
61117;DHT22;47002;50.856;6.580;2022-08-16T07:54:46;21.80;67.00
61117;DHT22;47002;50.856;6.580;2022-08-16T07:57:13;21.90;67.10
61117;DHT22;47002;50.856;6.580;2022-08-16T07:59:39;22.00;66.90
61117;DHT22;47002;50.856;6.580;2022-08-16T08:02:05;22.00;66.70
61117;DHT22;47002;50.856;6.580;2022-08-16T08:04:31;22.10;66.70
61117;DHT22;47002;50.856;6.580;2022-08-16T08:06:56;22.20;66.00
61117;DHT22;47002;50.856;6.580;2022-08-16T08:09:22;22.30;65.10
61117;DHT22;47002;50.856;6.580;2022-08-16T08:11:48;22.40;64.90
61117;DHT22;47002;50.856;6.580;2022-08-16T08:14:15;22.40;65.40
61117;DHT22;47002;50.856;6.580;2022-08-16T08:16:41;22.60;65.20
61117;DHT22;47002;50.856;6.580;2022-08-16T08:19:07;22.70;64.20
61117;DHT22;47002;50.856;6.580;2022-08-16T08:21:34;22.80;63.60
61117;DHT22;47002;50.856;6.580;2022-08-16T08:23:59;22.80;63.20
61117;DHT22;47002;50.856;6.580;2022-08-16T08:26:25;22.90;63.50
61117;DHT22;47002;50.856;6.580;2022-08-16T08:28:51;22.90;62.60
61117;DHT22;47002;50.856;6.580;2022-08-16T08:31:18;22.90;62.50
61117;DHT22;47002;50.856;6.580;2022-08-16T08:33:44;22.80;62.70
61117;DHT22;47002;50.856;6.580;2022-08-16T08:36:10;22.80;62.50
61117;DHT22;47002;50.856;6.580;2022-08-16T08:38:35;22.90;62.80
61117;DHT22;47002;50.856;6.580;2022-08-16T08:41:02;23.00;62.30
61117;DHT22;47002;50.856;6.580;2022-08-16T08:43:28;23.20;62.00
61117;DHT22;47002;50.856;6.580;2022-08-16T08:45:54;23.30;61.50
61117;DHT22;47002;50.856;6.580;2022-08-16T08:48:21;23.40;61.40
61117;DHT22;47002;50.856;6.580;2022-08-16T08:50:47;23.60;61.60
61117;DHT22;47002;50.856;6.580;2022-08-16T08:53:13;23.70;60.80
61117;DHT22;47002;50.856;6.580;2022-08-16T08:55:38;24.00;60.10
61117;DHT22;47002;50.856;6.580;2022-08-16T08:58:04;24.30;58.70
61117;DHT22;47002;50.856;6.580;2022-08-16T09:00:30;24.40;58.20
61117;DHT22;47002;50.856;6.580;2022-08-16T09:02:56;24.30;58.50
61117;DHT22;47002;50.856;6.580;2022-08-16T09:05:24;24.40;58.10
61117;DHT22;47002;50.856;6.580;2022-08-16T09:07:50;24.50;58.10
61117;DHT22;47002;50.856;6.580;2022-08-16T09:10:16;24.50;57.20
61117;DHT22;47002;50.856;6.580;2022-08-16T09:12:42;24.40;57.70
61117;DHT22;47002;50.856;6.580;2022-08-16T09:15:09;24.40;57.60
61117;DHT22;47002;50.856;6.580;2022-08-16T09:17:36;24.40;58.30
61117;DHT22;47002;50.856;6.580;2022-08-16T09:20:03;24.50;57.80
61117;DHT22;47002;50.856;6.580;2022-08-16T09:22:30;24.60;56.40
61117;DHT22;47002;50.856;6.580;2022-08-16T09:24:56;24.60;56.10
61117;DHT22;47002;50.856;6.580;2022-08-16T09:27:22;24.40;56.20
61117;DHT22;47002;50.856;6.580;2022-08-16T09:29:48;24.20;57.10
61117;DHT22;47002;50.856;6.580;2022-08-16T09:32:14;24.20;56.60
61117;DHT22;47002;50.856;6.580;2022-08-16T09:34:40;24.10;57.90
61117;DHT22;47002;50.856;6.580;2022-08-16T09:37:05;24.30;57.30
61117;DHT22;47002;50.856;6.580;2022-08-16T09:39:33;24.50;57.40
61117;DHT22;47002;50.856;6.580;2022-08-16T09:41:58;24.70;56.80
61117;DHT22;47002;50.856;6.580;2022-08-16T09:44:24;25.00;56.20
61117;DHT22;47002;50.856;6.580;2022-08-16T09:46:51;25.30;55.30
61117;DHT22;47002;50.856;6.580;2022-08-16T09:49:17;25.50;54.70
61117;DHT22;47002;50.856;6.580;2022-08-16T09:51:43;25.70;53.80
61117;DHT22;47002;50.856;6.580;2022-08-16T09:54:09;25.90;53.20
61117;DHT22;47002;50.856;6.580;2022-08-16T09:56:40;26.10;52.60
61117;DHT22;47002;50.856;6.580;2022-08-16T09:59:07;26.10;52.50
61117;DHT22;47002;50.856;6.580;2022-08-16T10:01:34;26.20;52.30
61117;DHT22;47002;50.856;6.580;2022-08-16T10:04:00;26.30;52.00
61117;DHT22;47002;50.856;6.580;2022-08-16T10:06:26;26.50;51.30
61117;DHT22;47002;50.856;6.580;2022-08-16T10:08:53;26.60;50.90
61117;DHT22;47002;50.856;6.580;2022-08-16T10:11:18;26.70;50.10
61117;DHT22;47002;50.856;6.580;2022-08-16T10:13:46;26.70;50.30
61117;DHT22;47002;50.856;6.580;2022-08-16T10:16:11;26.90;50.10
61117;DHT22;47002;50.856;6.580;2022-08-16T10:18:37;27.00;49.50
61117;DHT22;47002;50.856;6.580;2022-08-16T10:21:03;27.10;48.70
61117;DHT22;47002;50.856;6.580;2022-08-16T10:23:29;27.20;47.90
61117;DHT22;47002;50.856;6.580;2022-08-16T10:25:54;27.30;46.60
61117;DHT22;47002;50.856;6.580;2022-08-16T10:28:20;27.10;47.00
61117;DHT22;47002;50.856;6.580;2022-08-16T10:30:47;26.90;47.30
61117;DHT22;47002;50.856;6.580;2022-08-16T10:33:13;26.80;46.40
61117;DHT22;47002;50.856;6.580;2022-08-16T10:35:39;26.70;47.70
61117;DHT22;47002;50.856;6.580;2022-08-16T10:38:05;26.60;46.50
61117;DHT22;47002;50.856;6.580;2022-08-16T10:40:31;26.70;46.70
61117;DHT22;47002;50.856;6.580;2022-08-16T10:42:57;26.80;46.00
61117;DHT22;47002;50.856;6.580;2022-08-16T10:45:23;26.90;46.00
61117;DHT22;47002;50.856;6.580;2022-08-16T10:47:50;27.00;45.40
61117;DHT22;47002;50.856;6.580;2022-08-16T10:50:16;26.90;44.90
61117;DHT22;47002;50.856;6.580;2022-08-16T10:52:42;26.80;45.40
61117;DHT22;47002;50.856;6.580;2022-08-16T10:55:08;26.90;45.50
61117;DHT22;47002;50.856;6.580;2022-08-16T10:57:34;27.10;45.30
61117;DHT22;47002;50.856;6.580;2022-08-16T11:00:00;27.20;43.40
61117;DHT22;47002;50.856;6.580;2022-08-16T11:02:25;27.40;42.30
61117;DHT22;47002;50.856;6.580;2022-08-16T11:04:52;27.50;42.80
61117;DHT22;47002;50.856;6.580;2022-08-16T11:07:18;27.60;43.10
61117;DHT22;47002;50.856;6.580;2022-08-16T11:09:44;27.80;43.10
61117;DHT22;47002;50.856;6.580;2022-08-16T11:12:09;28.00;41.20
61117;DHT22;47002;50.856;6.580;2022-08-16T11:14:35;28.10;40.90
61117;DHT22;47002;50.856;6.580;2022-08-16T11:17:02;28.20;40.50
61117;DHT22;47002;50.856;6.580;2022-08-16T11:19:28;28.20;41.20
61117;DHT22;47002;50.856;6.580;2022-08-16T11:21:55;28.10;41.10
61117;DHT22;47002;50.856;6.580;2022-08-16T11:24:21;28.00;41.30
61117;DHT22;47002;50.856;6.580;2022-08-16T11:26:47;28.10;41.70
61117;DHT22;47002;50.856;6.580;2022-08-16T11:29:13;28.30;41.70
61117;DHT22;47002;50.856;6.580;2022-08-16T11:31:39;28.60;40.90
61117;DHT22;47002;50.856;6.580;2022-08-16T11:34:05;28.90;40.40
61117;DHT22;47002;50.856;6.580;2022-08-16T11:36:30;28.90;39.50
61117;DHT22;47002;50.856;6.580;2022-08-16T11:38:58;28.80;39.60
61117;DHT22;47002;50.856;6.580;2022-08-16T11:41:24;28.80;39.30
61117;DHT22;47002;50.856;6.580;2022-08-16T11:43:49;28.60;38.40
61117;DHT22;47002;50.856;6.580;2022-08-16T11:46:15;28.30;39.20
61117;DHT22;47002;50.856;6.580;2022-08-16T11:48:41;28.20;39.70
61117;DHT22;47002;50.856;6.580;2022-08-16T11:51:07;28.10;40.30
61117;DHT22;47002;50.856;6.580;2022-08-16T11:53:32;28.20;40.70
61117;DHT22;47002;50.856;6.580;2022-08-16T11:56:00;28.40;40.00
61117;DHT22;47002;50.856;6.580;2022-08-16T11:58:28;28.30;39.80
61117;DHT22;47002;50.856;6.580;2022-08-16T12:00:55;28.10;39.50
61117;DHT22;47002;50.856;6.580;2022-08-16T12:03:24;27.90;40.00
61117;DHT22;47002;50.856;6.580;2022-08-16T12:05:50;27.80;41.00
61117;DHT22;47002;50.856;6.580;2022-08-16T12:08:16;27.80;41.50
61117;DHT22;47002;50.856;6.580;2022-08-16T12:10:42;27.90;41.20
61117;DHT22;47002;50.856;6.580;2022-08-16T12:13:09;28.00;40.90
61117;DHT22;47002;50.856;6.580;2022-08-16T12:15:35;28.10;41.00
61117;DHT22;47002;50.856;6.580;2022-08-16T12:18:01;28.30;40.40
61117;DHT22;47002;50.856;6.580;2022-08-16T12:20:32;28.40;40.20
61117;DHT22;47002;50.856;6.580;2022-08-16T12:22:59;28.50;40.40
61117;DHT22;47002;50.856;6.580;2022-08-16T12:25:26;28.70;40.10
61117;DHT22;47002;50.856;6.580;2022-08-16T12:27:53;29.10;38.80
61117;DHT22;47002;50.856;6.580;2022-08-16T12:30:23;29.30;37.30
61117;DHT22;47002;50.856;6.580;2022-08-16T12:32:49;29.50;36.70
61117;DHT22;47002;50.856;6.580;2022-08-16T12:35:16;29.70;35.80
61117;DHT22;47002;50.856;6.580;2022-08-16T12:37:43;29.90;35.30
61117;DHT22;47002;50.856;6.580;2022-08-16T12:40:11;30.10;35.90
61117;DHT22;47002;50.856;6.580;2022-08-16T12:42:37;30.10;35.30
61117;DHT22;47002;50.856;6.580;2022-08-16T12:45:04;30.10;35.60
61117;DHT22;47002;50.856;6.580;2022-08-16T12:47:32;30.00;36.00
61117;DHT22;47002;50.856;6.580;2022-08-16T12:49:57;30.20;35.70
61117;DHT22;47002;50.856;6.580;2022-08-16T12:52:23;30.50;35.40
61117;DHT22;47002;50.856;6.580;2022-08-16T12:54:49;30.70;34.90
61117;DHT22;47002;50.856;6.580;2022-08-16T12:57:14;30.60;35.20
61117;DHT22;47002;50.856;6.580;2022-08-16T12:59:40;30.70;34.80
61117;DHT22;47002;50.856;6.580;2022-08-16T13:02:06;30.50;35.10
61117;DHT22;47002;50.856;6.580;2022-08-16T13:04:34;30.60;34.80
61117;DHT22;47002;50.856;6.580;2022-08-16T13:07:00;30.70;34.70
61117;DHT22;47002;50.856;6.580;2022-08-16T13:09:27;30.70;34.80
61117;DHT22;47002;50.856;6.580;2022-08-16T13:11:57;30.80;34.20
61117;DHT22;47002;50.856;6.580;2022-08-16T13:14:23;30.70;34.30
61117;DHT22;47002;50.856;6.580;2022-08-16T13:16:48;30.80;34.40
61117;DHT22;47002;50.856;6.580;2022-08-16T13:19:14;30.80;34.10
61117;DHT22;47002;50.856;6.580;2022-08-16T13:21:41;30.70;33.90
61117;DHT22;47002;50.856;6.580;2022-08-16T13:24:07;31.10;33.40
61117;DHT22;47002;50.856;6.580;2022-08-16T13:26:32;31.40;32.90
61117;DHT22;47002;50.856;6.580;2022-08-16T13:28:58;31.80;32.00
61117;DHT22;47002;50.856;6.580;2022-08-16T13:31:24;32.10;31.70
61117;DHT22;47002;50.856;6.580;2022-08-16T13:33:50;32.50;32.10
61117;DHT22;47002;50.856;6.580;2022-08-16T13:36:16;33.40;30.30
61117;DHT22;47002;50.856;6.580;2022-08-16T13:38:43;34.00;28.70
61117;DHT22;47002;50.856;6.580;2022-08-16T13:41:10;34.30;28.50
61117;DHT22;47002;50.856;6.580;2022-08-16T13:43:36;35.00;28.50
61117;DHT22;47002;50.856;6.580;2022-08-16T13:46:02;36.30;26.80
61117;DHT22;47002;50.856;6.580;2022-08-16T13:48:28;37.20;25.10
61117;DHT22;47002;50.856;6.580;2022-08-16T13:50:56;37.60;25.10
61117;DHT22;47002;50.856;6.580;2022-08-16T13:53:22;37.60;24.20
61117;DHT22;47002;50.856;6.580;2022-08-16T13:55:49;37.50;24.50
61117;DHT22;47002;50.856;6.580;2022-08-16T13:58:15;37.10;24.40
61117;DHT22;47002;50.856;6.580;2022-08-16T14:00:40;36.80;24.70
61117;DHT22;47002;50.856;6.580;2022-08-16T14:03:07;36.60;25.00
61117;DHT22;47002;50.856;6.580;2022-08-16T14:05:32;36.70;24.80
61117;DHT22;47002;50.856;6.580;2022-08-16T14:07:58;36.40;25.00
61117;DHT22;47002;50.856;6.580;2022-08-16T14:10:24;36.20;25.20
61117;DHT22;47002;50.856;6.580;2022-08-16T14:12:51;36.50;24.70
61117;DHT22;47002;50.856;6.580;2022-08-16T14:15:17;36.80;24.60
61117;DHT22;47002;50.856;6.580;2022-08-16T14:17:43;36.60;24.20
61117;DHT22;47002;50.856;6.580;2022-08-16T14:20:10;36.10;25.20
61117;DHT22;47002;50.856;6.580;2022-08-16T14:22:37;36.10;24.80
61117;DHT22;47002;50.856;6.580;2022-08-16T14:25:05;35.90;25.30
61117;DHT22;47002;50.856;6.580;2022-08-16T14:27:30;35.80;25.40
61117;DHT22;47002;50.856;6.580;2022-08-16T14:29:58;35.90;25.50
61117;DHT22;47002;50.856;6.580;2022-08-16T14:32:26;35.80;26.00
61117;DHT22;47002;50.856;6.580;2022-08-16T14:34:53;36.20;25.20
61117;DHT22;47002;50.856;6.580;2022-08-16T14:37:20;36.50;25.00
61117;DHT22;47002;50.856;6.580;2022-08-16T14:39:45;36.70;24.70
61117;DHT22;47002;50.856;6.580;2022-08-16T14:42:13;36.80;24.70
61117;DHT22;47002;50.856;6.580;2022-08-16T14:44:39;37.00;24.40
61117;DHT22;47002;50.856;6.580;2022-08-16T14:47:07;37.10;24.20
61117;DHT22;47002;50.856;6.580;2022-08-16T14:49:33;36.80;24.30
61117;DHT22;47002;50.856;6.580;2022-08-16T14:52:00;36.40;24.80
61117;DHT22;47002;50.856;6.580;2022-08-16T14:54:26;36.00;24.90
61117;DHT22;47002;50.856;6.580;2022-08-16T14:56:52;35.70;25.20
61117;DHT22;47002;50.856;6.580;2022-08-16T14:59:17;35.50;25.40
61117;DHT22;47002;50.856;6.580;2022-08-16T15:01:43;35.30;25.60
61117;DHT22;47002;50.856;6.580;2022-08-16T15:04:10;35.10;25.60
61117;DHT22;47002;50.856;6.580;2022-08-16T15:06:36;34.60;26.40
61117;DHT22;47002;50.856;6.580;2022-08-16T15:09:01;33.80;27.40
61117;DHT22;47002;50.856;6.580;2022-08-16T15:11:27;33.20;28.20
61117;DHT22;47002;50.856;6.580;2022-08-16T15:13:53;33.00;28.60
61117;DHT22;47002;50.856;6.580;2022-08-16T15:16:19;33.00;28.80
61117;DHT22;47002;50.856;6.580;2022-08-16T15:18:44;32.50;29.20
61117;DHT22;47002;50.856;6.580;2022-08-16T15:21:11;32.00;30.10
61117;DHT22;47002;50.856;6.580;2022-08-16T15:23:37;31.50;30.70